Time;durP1;ratioP1;P1;durP2;ratioP2;P2;SDS_P1;SDS_P2;PMS_P1;PMS_P2;Temp;Humidity;BMP_temperature;BMP_pressure;BME280_temperature;BME280_humidity;BME280_pressure;Samples;Min_cycle;Max_cycle;Signal;HPM_P1;HPM_P2
2023/12/27 00:04:41;;;;;;;1.40;0.70;;;;;;;19.16;52.54;97188.22;21121893;27;20044;-55
2023/12/27 00:15:01;;;;;;;2.33;1.08;;;;;;;19.13;52.69;97180.75;21182351;27;20039;-55
2023/12/27 00:25:21;;;;;;;3.00;1.15;;;;;;;19.11;52.75;97192.94;21162425;27;20043;-55
2023/12/27 00:35:40;;;;;;;2.67;0.93;;;;;;;19.09;53.08;97203.25;21152269;27;20044;-55
2023/12/27 00:46:00;;;;;;;1.63;0.95;;;;;;;19.07;52.74;97233.31;21147232;27;20408;-56
2023/12/27 00:56:19;;;;;;;2.10;0.90;;;;;;;19.04;53.17;97238.53;21145714;27;20055;-56
2023/12/27 01:06:39;;;;;;;1.60;0.80;;;;;;;19.01;53.30;97242.63;21108728;27;20043;-56
2023/12/27 01:16:58;;;;;;;1.77;0.95;;;;;;;18.96;53.25;97257.06;21152416;27;20115;-56
2023/12/27 01:27:17;;;;;;;3.65;0.90;;;;;;;18.94;53.39;97266.56;21141048;27;20055;-55
2023/12/27 01:37:38;;;;;;;1.20;0.85;;;;;;;18.94;53.44;97285.47;21126880;27;20044;-55
2023/12/27 01:47:58;;;;;;;2.17;0.70;;;;;;;18.89;53.49;97301.78;21179209;27;20036;-55
2023/12/27 01:58:18;;;;;;;2.40;0.82;;;;;;;18.86;53.49;97299.72;21156240;27;20051;-55
2023/12/27 02:08:38;;;;;;;1.98;0.80;;;;;;;18.85;53.39;97306.22;21170656;27;20412;-57
2023/12/27 02:19:00;;;;;;;1.58;0.80;;;;;;;18.82;53.31;97314.91;21132895;27;20507;-57
2023/12/27 02:29:20;;;;;;;1.23;0.60;;;;;;;18.80;53.36;97322.50;21138483;27;20381;-58
2023/12/27 02:39:39;;;;;;;1.08;0.70;;;;;;;18.76;53.46;97315.00;21181837;27;20036;-57
2023/12/27 02:49:58;;;;;;;2.17;0.70;;;;;;;18.74;53.30;97319.13;21137125;27;20588;-58
2023/12/27 03:00:18;;;;;;;1.63;0.73;;;;;;;18.73;53.57;97326.41;21131233;27;20180;-58
2023/12/27 03:10:38;;;;;;;1.45;0.70;;;;;;;18.70;53.30;97335.13;21157560;27;20039;-55
2023/12/27 03:20:58;;;;;;;2.20;0.90;;;;;;;18.69;53.42;97330.81;21153879;28;20058;-55
2023/12/27 03:31:18;;;;;;;1.00;0.60;;;;;;;18.65;53.32;97343.34;21140741;28;20063;-55
2023/12/27 03:41:38;;;;;;;0.90;0.70;;;;;;;18.63;53.42;97359.03;21150219;28;20048;-54
2023/12/27 03:51:57;;;;;;;2.40;0.70;;;;;;;18.62;53.32;97341.25;21161949;28;20100;-55
2023/12/27 04:02:16;;;;;;;1.33;0.65;;;;;;;18.58;53.38;97338.38;21179257;27;20439;-55
2023/12/27 04:12:36;;;;;;;1.20;0.60;;;;;;;18.56;53.22;97355.94;21138510;27;20055;-55
2023/12/27 04:22:55;;;;;;;1.55;0.68;;;;;;;18.55;53.23;97359.75;21150521;27;20103;-55
2023/12/27 04:33:16;;;;;;;1.70;0.60;;;;;;;18.52;53.28;97390.03;21122922;27;20055;-55
2023/12/27 04:43:36;;;;;;;0.55;0.50;;;;;;;18.52;53.43;97400.81;21164103;27;20074;-57
2023/12/27 04:53:55;;;;;;;0.90;0.63;;;;;;;18.50;53.43;97376.06;21150805;27;20050;-57
2023/12/27 05:04:16;;;;;;;0.95;0.55;;;;;;;18.47;53.37;97374.75;21164880;27;20051;-55
2023/12/27 05:14:35;;;;;;;1.13;0.50;;;;;;;18.45;53.37;97387.75;21167682;27;20054;-57
2023/12/27 05:24:55;;;;;;;0.77;0.60;;;;;;;18.45;53.44;97381.56;21163658;27;20108;-58
2023/12/27 05:35:15;;;;;;;0.68;0.60;;;;;;;18.42;53.24;97387.56;21152183;27;20056;-55
2023/12/27 05:45:34;;;;;;;1.10;0.70;;;;;;;18.40;53.21;97377.06;21171901;27;20055;-54
2023/12/27 05:55:54;;;;;;;1.05;0.57;;;;;;;18.42;53.17;97395.66;21153993;27;20043;-57
2023/12/27 06:06:14;;;;;;;0.63;0.50;;;;;;;18.45;53.14;97403.16;21151797;27;20558;-57
2023/12/27 06:16:33;;;;;;;0.43;0.40;;;;;;;18.51;53.27;97413.53;21170657;27;20084;-57
2023/12/27 06:26:53;;;;;;;0.60;0.60;;;;;;;18.55;53.27;97417.22;21136167;27;20047;-57
2023/12/27 06:37:13;;;;;;;0.82;0.60;;;;;;;18.60;52.93;97426.31;21154483;27;20457;-57
2023/12/27 06:47:33;;;;;;;3.83;1.23;;;;;;;18.01;42.40;97447.69;21109868;27;20048;-57
2023/12/27 06:57:52;;;;;;;2.55;1.20;;;;;;;17.02;41.90;97449.56;21130887;27;20474;-54
2023/12/27 07:08:12;;;;;;;2.05;1.08;;;;;;;18.10;44.82;97448.59;21141387;27;20040;-55
2023/12/27 07:18:31;;;;;;;1.50;1.10;;;;;;;18.43;45.21;97453.91;21166744;27;20043;-55
2023/12/27 07:28:51;;;;;;;1.48;0.73;;;;;;;18.59;45.91;97466.00;21119029;28;20055;-54
2023/12/27 07:39:10;;;;;;;24.75;13.10;;;;;;;18.61;41.17;97479.19;21171359;27;20043;-55
2023/12/27 07:49:29;;;;;;;5.85;3.08;;;;;;;18.77;45.77;97472.34;21159228;27;20070;-58
2023/12/27 07:59:55;;;;;;;3.60;2.60;;;;;;;18.96;46.21;97474.97;21135057;27;20044;-58
2023/12/27 08:10:15;;;;;;;2.95;2.50;;;;;;;19.07;46.72;97502.53;21137221;27;20105;-54
2023/12/27 08:20:35;;;;;;;6.13;2.92;;;;;;;19.17;46.91;97522.03;21151805;27;20047;-55
2023/12/27 08:30:55;;;;;;;3.72;2.17;;;;;;;19.26;44.14;97518.59;21159778;27;20574;-55
2023/12/27 08:41:14;;;;;;;3.30;2.10;;;;;;;19.06;45.75;97528.75;21203254;27;20368;-57
2023/12/27 08:51:34;;;;;;;3.17;1.83;;;;;;;19.35;44.86;97546.50;21158780;27;20047;-57
2023/12/27 09:01:54;;;;;;;5.00;1.88;;;;;;;19.51;45.49;97546.94;21185518;27;20420;-60
2023/12/27 09:12:13;;;;;;;7.85;2.08;;;;;;;19.55;46.19;97548.72;21157945;27;20047;-60
2023/12/27 09:22:32;;;;;;;7.30;2.00;;;;;;;19.59;46.26;97532.69;21146239;27;20043;-57
2023/12/27 09:32:52;;;;;;;6.40;2.20;;;;;;;19.63;46.53;97538.28;21163401;27;20052;-58
2023/12/27 09:43:12;;;;;;;9.38;1.88;;;;;;;19.74;46.30;97531.56;21158502;27;20054;-57
2023/12/27 09:53:31;;;;;;;8.70;2.55;;;;;;;19.82;38.29;97511.91;21127234;27;20454;-57
2023/12/27 10:04:17;;;;;;;7.90;2.67;;;;;;;19.75;35.45;97498.81;21118076;27;20481;-57
2023/12/27 10:14:37;;;;;;;4.28;2.33;;;;;;;19.38;34.08;97485.63;21118165;27;20412;-56
2023/12/27 10:24:57;;;;;;;6.88;2.65;;;;;;;18.75;34.18;97478.06;21136332;27;20039;-56
2023/12/27 10:35:17;;;;;;;5.38;2.25;;;;;;;18.33;34.02;97479.19;21118204;27;20093;-57
2023/12/27 10:45:38;;;;;;;4.10;1.98;;;;;;;19.29;36.42;97467.47;21140739;27;20046;-57
2023/12/27 10:55:58;;;;;;;5.47;2.03;;;;;;;19.57;37.59;97437.59;21105767;27;20055;-59
2023/12/27 11:06:21;;;;;;;6.47;1.98;;;;;;;19.76;38.47;97429.34;21108472;27;20060;-60
2023/12/27 11:16:42;;;;;;;5.47;1.92;;;;;;;19.96;39.13;97422.59;21094832;28;20172;-60
2023/12/27 11:27:02;;;;;;;4.40;1.77;;;;;;;20.05;39.58;97419.91;21111040;28;20056;-58
2023/12/27 11:37:22;;;;;;;4.28;1.85;;;;;;;20.17;40.31;97416.59;21105115;28;20507;-58
2023/12/27 11:47:42;;;;;;;4.15;1.65;;;;;;;20.21;40.60;97390.53;21130303;28;20472;-60
2023/12/27 11:58:02;;;;;;;3.97;1.83;;;;;;;20.23;40.28;97375.59;21114897;27;20032;-59
2023/12/27 12:08:30;;;;;;;4.70;1.80;;;;;;;20.34;41.45;97357.94;21095031;28;20044;-59
2023/12/27 12:18:50;;;;;;;4.53;1.55;;;;;;;20.41;41.83;97343.94;21095216;27;20467;-60
2023/12/27 12:29:10;;;;;;;8.48;1.50;;;;;;;20.44;42.48;97323.56;21128505;27;20059;-58
2023/12/27 12:39:30;;;;;;;3.63;1.50;;;;;;;20.40;43.23;97309.06;21150835;27;20055;-58
2023/12/27 12:49:49;;;;;;;6.88;1.83;;;;;;;20.42;43.56;97294.09;21123843;27;20044;-58
2023/12/27 13:00:09;;;;;;;8.23;2.03;;;;;;;20.47;44.64;97293.16;21133527;27;20050;-59
2023/12/27 13:10:28;;;;;;;3.35;1.70;;;;;;;20.44;45.17;97264.03;21167878;27;20040;-66
2023/12/27 13:20:48;;;;;;;7.95;2.17;;;;;;;20.45;44.39;97265.63;21129189;27;20112;-58
2023/12/27 13:31:07;;;;;;;6.35;2.58;;;;;;;20.40;45.05;97263.06;21182997;27;20059;-60
2023/12/27 13:41:26;;;;;;;5.25;2.00;;;;;;;20.38;45.58;97232.84;21181286;27;20479;-59
2023/12/27 13:51:46;;;;;;;3.40;1.65;;;;;;;20.32;46.28;97237.59;21235686;27;20054;-57
2023/12/27 14:02:05;;;;;;;5.57;1.85;;;;;;;20.30;46.77;97213.56;21154210;27;20051;-59
2023/12/27 14:12:28;;;;;;;3.65;1.88;;;;;;;20.29;47.24;97230.16;21123244;27;20043;-58
2023/12/27 14:22:47;;;;;;;3.47;2.10;;;;;;;20.23;47.35;97198.94;21165058;27;20048;-59
2023/12/27 14:33:07;;;;;;;3.42;1.85;;;;;;;20.19;47.74;97217.72;21129042;27;20060;-59
2023/12/27 14:43:27;;;;;;;5.40;2.10;;;;;;;20.15;48.01;97209.44;21134188;27;20064;-59
2023/12/27 14:53:46;;;;;;;3.38;1.67;;;;;;;20.19;48.46;97206.91;21134930;27;20051;-59
2023/12/27 15:04:08;;;;;;;2.78;1.70;;;;;;;20.14;49.49;97198.94;21134826;27;20759;-60
2023/12/27 15:14:28;;;;;;;4.53;1.90;;;;;;;20.15;49.82;97187.03;21155755;27;20044;-63
2023/12/27 15:24:48;;;;;;;2.65;1.95;;;;;;;20.10;50.24;97193.38;21120150;28;20048;-61
2023/12/27 15:35:09;;;;;;;3.88;2.00;;;;;;;20.11;50.89;97173.34;21105856;28;20102;-61
2023/12/27 15:45:29;;;;;;;5.25;2.00;;;;;;;20.07;50.83;97176.97;21131719;27;20040;-62
2023/12/27 15:55:48;;;;;;;3.45;1.80;;;;;;;20.05;51.42;97165.69;21097467;28;20059;-62
2023/12/27 16:06:07;;;;;;;3.90;2.00;;;;;;;20.01;51.75;97159.31;21121844;27;20044;-62
2023/12/27 16:16:27;;;;;;;5.03;2.00;;;;;;;19.95;52.40;97145.97;21122792;27;20051;-60
2023/12/27 16:26:47;;;;;;;5.50;2.67;;;;;;;19.87;50.57;97146.75;21116696;27;20103;-56
2023/12/27 16:37:06;;;;;;;5.07;3.08;;;;;;;19.89;52.36;97155.31;21115855;28;20116;-58
2023/12/27 16:47:25;;;;;;;4.80;2.60;;;;;;;19.89;53.31;97133.69;21112038;28;20047;-55
2023/12/27 16:57:45;;;;;;;2.63;2.17;;;;;;;19.93;53.91;97121.16;21087850;28;20074;-54
2023/12/27 17:08:06;;;;;;;3.70;2.40;;;;;;;19.85;54.38;97094.91;21159448;27;20051;-54
2023/12/27 17:18:26;;;;;;;5.05;2.40;;;;;;;19.78;54.72;97075.69;21087737;28;20055;-52
2023/12/27 17:28:45;;;;;;;4.88;2.78;;;;;;;19.78;55.10;97075.69;21105233;28;20105;-51
2023/12/27 17:39:05;;;;;;;6.28;2.58;;;;;;;19.73;54.44;97083.94;21104151;28;20051;-53
2023/12/27 17:49:24;;;;;;;4.32;2.90;;;;;;;19.72;55.26;97079.66;21129225;28;20484;-62
2023/12/27 17:59:43;;;;;;;3.72;2.47;;;;;;;19.68;55.70;97054.31;21147319;28;20031;-57
2023/12/27 18:10:04;;;;;;;9.45;2.30;;;;;;;19.66;55.92;97060.06;21132970;27;20146;-65
2023/12/27 18:20:23;;;;;;;4.75;2.42;;;;;;;19.64;56.13;97043.38;21085010;28;20482;-63
2023/12/27 18:30:43;;;;;;;3.65;2.40;;;;;;;19.63;56.39;97039.06;21111181;28;20074;-56
2023/12/27 18:41:04;;;;;;;6.38;2.58;;;;;;;19.61;56.62;97027.00;21105727;28;20067;-56
2023/12/27 18:51:23;;;;;;;4.22;2.20;;;;;;;19.60;57.31;97039.72;21103698;28;20040;-59
2023/12/27 19:01:43;;;;;;;4.95;2.40;;;;;;;19.59;58.03;97031.94;21098909;28;20487;-57
2023/12/27 19:12:03;;;;;;;4.28;2.75;;;;;;;19.55;58.46;97029.84;21113953;28;20048;-57
2023/12/27 19:22:22;;;;;;;4.63;2.50;;;;;;;19.53;58.43;97025.88;21119586;28;20051;-55
2023/12/27 19:32:42;;;;;;;7.80;4.68;;;;;;;19.50;56.26;97011.09;21111752;27;20044;-59
2023/12/27 19:43:02;;;;;;;5.85;3.78;;;;;;;19.46;57.16;96993.91;21141772;27;20044;-56
2023/12/27 19:53:22;;;;;;;9.48;3.42;;;;;;;19.43;57.54;97008.06;21127386;27;20112;-59
2023/12/27 20:03:42;;;;;;;4.82;3.10;;;;;;;19.37;57.91;96990.44;21123548;27;20047;-57
2023/12/27 20:14:03;;;;;;;5.18;3.17;;;;;;;19.34;58.04;97001.88;21129549;27;20044;-59
2023/12/27 20:24:27;;;;;;;5.15;2.97;;;;;;;19.35;58.29;96998.06;21124805;27;20408;-59
2023/12/27 20:34:46;;;;;;;3.30;2.58;;;;;;;19.32;58.45;96998.69;21121847;27;20056;-56
2023/12/27 20:45:06;;;;;;;6.03;2.40;;;;;;;19.30;58.66;96977.41;21146836;27;20054;-60
2023/12/27 20:55:26;;;;;;;4.80;2.78;;;;;;;19.30;59.02;96969.28;21152293;27;20044;-60
2023/12/27 21:05:45;;;;;;;3.10;2.42;;;;;;;19.30;58.58;96979.31;21135853;27;20055;-61
2023/12/27 21:16:14;;;;;;;4.65;2.83;;;;;;;19.29;58.70;96966.94;21144115;27;20047;-61
2023/12/27 21:26:33;;;;;;;4.43;2.53;;;;;;;19.25;58.56;96955.16;21144291;27;20056;-57
2023/12/27 21:36:53;;;;;;;3.55;2.35;;;;;;;19.24;58.56;96948.16;21115348;28;20424;-56
2023/12/27 21:47:13;;;;;;;4.03;2.50;;;;;;;19.21;58.29;96949.63;21140630;27;20048;-57
2023/12/27 21:57:32;;;;;;;4.00;2.85;;;;;;;19.22;58.41;96955.81;21117436;27;20059;-56
2023/12/27 22:07:51;;;;;;;4.38;2.53;;;;;;;19.20;57.90;96953.41;21147376;27;20054;-56
2023/12/27 22:18:11;;;;;;;3.17;2.08;;;;;;;19.15;58.20;96943.56;21164219;27;20075;-56
2023/12/27 22:28:30;;;;;;;2.35;2.10;;;;;;;19.09;58.29;96931.34;21167805;27;20400;-56
2023/12/27 22:38:50;;;;;;;3.60;2.40;;;;;;;19.04;58.28;96942.28;21186399;27;20044;-55
2023/12/27 22:49:09;;;;;;;4.47;2.30;;;;;;;19.00;58.27;96952.13;21209142;27;20067;-56
2023/12/27 22:59:28;;;;;;;2.38;1.92;;;;;;;18.96;58.31;96940.38;21193988;27;20124;-56
2023/12/27 23:09:48;;;;;;;3.97;2.53;;;;;;;18.93;58.66;96924.81;21179811;27;20047;-56
2023/12/27 23:20:08;;;;;;;4.25;2.30;;;;;;;18.90;58.51;96914.66;21205759;27;20043;-55
2023/12/27 23:30:27;;;;;;;4.35;2.30;;;;;;;18.87;58.37;96928.78;21172786;27;20396;-56
2023/12/27 23:40:47;;;;;;;2.35;2.00;;;;;;;18.84;58.42;96934.81;21195847;27;20484;-56
2023/12/27 23:51:06;;;;;;;3.35;2.20;;;;;;;18.81;58.37;96921.94;21187240;27;20494;-57
